KMTO/MTO METAR and TAF weather

Enter ICAO airport designator
Station Type Date Time Source
KMTO METAR 2019/08/26 06:53 UTC NOAA

KMTO 260653Z AUTO 14011KT 10SM BKN008 22/21 A2986 RMK AO2 SLP104 T02170206


Station Type Date Time Source
KMTO Decoded METAR 2019/08/26 06:53 UTC NOAA

Station name not available
Aug 26, 2019 - 02:53 AM EDT / 2019.08.26 0653 UTC
Wind: from the SE (140 degrees) at 13 MPH (11 KT):0
Visibility: 10 mile(s):0
Sky conditions: mostly cloudy
Temperature: 71.1 F (21.7 C)
Dew Point: 69.1 F (20.6 C)
Relative Humidity: 93%
Pressure (altimeter): 29.86 in. Hg (1011 hPa)
ob: KMTO 260653Z AUTO 14011KT 10SM BKN008 22/21 A2986 RMK AO2 SLP104 T02170206
cycle: 7

Station Type Date Time Source
KMTO TAF UTC NOAA

Error!

Example: see airport list